createdAt,value
2017-11-12T00:50:14.674Z,2.40
2017-11-12T00:50:50.843Z,3.55
2017-11-12T00:51:25.568Z,3.00
2017-11-12T00:52:00.265Z,2.90
2017-11-12T00:52:35.254Z,2.50
2017-11-12T00:53:09.965Z,3.50
2017-11-12T00:53:44.803Z,3.17
2017-11-12T00:54:19.584Z,3.28
2017-11-12T00:54:54.432Z,3.62
2017-11-12T00:55:29.025Z,3.42
2017-11-12T00:56:03.931Z,3.47
2017-11-12T00:56:38.713Z,3.85
2017-11-12T00:57:13.486Z,2.78
2017-11-12T00:57:48.278Z,3.12
2017-11-12T00:58:22.991Z,3.55
2017-11-12T00:58:57.705Z,2.75
2017-11-12T00:59:32.406Z,3.53
2017-11-12T01:00:07.137Z,3.30
2017-11-12T01:00:41.847Z,3.17
2017-11-12T01:01:16.532Z,3.80
2017-11-12T01:01:51.277Z,3.00
2017-11-12T01:02:25.995Z,3.20
2017-11-12T01:03:00.717Z,3.60
2017-11-12T01:03:35.418Z,3.00
2017-11-12T01:04:10.158Z,3.55
2017-11-12T01:04:44.875Z,3.60
2017-11-12T01:05:19.900Z,3.15
2017-11-12T01:05:54.661Z,3.67
2017-11-12T01:06:29.452Z,3.37
2017-11-12T01:07:03.927Z,3.25
2017-11-12T01:07:38.766Z,3.80
2017-11-12T01:08:13.479Z,3.45
2017-11-12T01:08:48.193Z,3.42
2017-11-12T01:09:22.906Z,3.70
2017-11-12T01:09:57.621Z,3.17
2017-11-12T01:10:32.672Z,3.42
2017-11-12T01:11:07.571Z,3.30
2017-11-12T01:11:42.348Z,3.35
2017-11-12T01:12:17.155Z,2.92
2017-11-12T01:12:51.969Z,3.25
2017-11-12T01:13:26.679Z,3.50
2017-11-12T01:14:01.435Z,3.80
2017-11-12T01:14:36.210Z,3.17
2017-11-12T01:15:10.951Z,3.62
2017-11-12T01:15:45.978Z,2.90
2017-11-12T01:16:20.682Z,3.28
2017-11-12T01:16:55.532Z,2.95
2017-11-12T01:17:30.363Z,2.60
2017-11-12T01:18:05.155Z,3.47
2017-11-12T01:18:39.919Z,3.00
2017-11-12T01:19:14.655Z,3.35
2017-11-12T01:19:49.001Z,2.90
2017-11-12T01:20:23.687Z,3.83
2017-11-12T01:20:58.467Z,3.40
2017-11-12T01:21:33.165Z,2.97
2017-11-12T01:22:07.870Z,3.87
2017-11-12T01:22:42.625Z,3.58
2017-11-12T01:23:17.372Z,2.90
2017-11-12T01:23:52.094Z,3.22
2017-11-12T01:24:26.796Z,3.37
2017-11-12T01:25:01.488Z,3.90
2017-11-12T01:25:36.192Z,3.00
2017-11-12T01:26:11.201Z,3.22
2017-11-12T01:26:45.896Z,3.55
2017-11-12T01:27:20.601Z,3.47
2017-11-12T01:27:55.332Z,3.28
2017-11-12T01:28:30.048Z,3.28
2017-11-12T01:29:04.765Z,3.15
2017-11-12T01:29:39.476Z,3.25
2017-11-12T01:30:14.185Z,3.10
2017-11-12T01:30:48.888Z,3.05
2017-11-12T01:31:23.608Z,3.53
2017-11-12T01:31:58.317Z,3.53
2017-11-12T01:32:33.037Z,2.83
2017-11-12T01:33:07.741Z,3.80
2017-11-12T01:33:42.458Z,3.28
2017-11-12T01:34:17.155Z,2.90
2017-11-12T01:34:51.851Z,2.92
2017-11-12T01:35:26.561Z,3.33
2017-11-12T01:36:01.305Z,3.08
2017-11-12T01:36:36.051Z,3.30
2017-11-12T01:37:10.748Z,3.25
2017-11-12T01:37:45.117Z,3.30
2017-11-12T01:38:19.825Z,2.97
2017-11-12T01:38:54.537Z,2.72
2017-11-12T01:39:29.252Z,3.42
2017-11-12T01:40:04.190Z,3.78
2017-11-12T01:40:38.884Z,3.87
2017-11-12T01:41:13.602Z,3.53
2017-11-12T01:41:48.620Z,3.00
2017-11-12T01:42:23.331Z,4.47
2017-11-12T01:42:58.028Z,3.90
2017-11-12T01:43:32.709Z,3.60
2017-11-12T01:44:07.414Z,3.25
2017-11-12T01:44:42.120Z,3.05
2017-11-12T01:45:16.824Z,3.22
2017-11-12T01:45:51.520Z,3.45
2017-11-12T01:46:26.232Z,2.90
2017-11-12T01:47:01.100Z,2.75
2017-11-12T01:47:35.877Z,2.78
2017-11-12T01:48:10.578Z,3.37
2017-11-12T01:48:45.380Z,3.60
2017-11-12T01:49:20.069Z,3.00
2017-11-12T01:49:54.769Z,3.25
2017-11-12T01:50:29.481Z,3.40
2017-11-12T01:51:04.226Z,3.60
2017-11-12T01:51:38.922Z,3.55
2017-11-12T01:52:13.651Z,3.78
2017-11-12T01:52:48.348Z,3.55
2017-11-12T01:53:23.075Z,3.35
2017-11-12T01:53:57.777Z,3.10
2017-11-12T01:54:32.477Z,3.75
2017-11-12T01:55:07.189Z,3.62
2017-11-12T01:55:41.888Z,3.62
2017-11-12T01:56:16.598Z,3.22
2017-11-12T01:56:51.307Z,3.75
2017-11-12T01:57:26.413Z,4.40
2017-11-12T01:58:01.116Z,3.60
2017-11-12T01:58:35.897Z,3.40
2017-11-12T01:59:10.595Z,3.85
2017-11-12T01:59:45.304Z,3.70
2017-11-12T02:00:19.654Z,4.37
2017-11-12T02:00:54.375Z,3.90
2017-11-12T02:01:28.741Z,4.45
2017-11-12T02:02:03.100Z,3.62
2017-11-12T02:02:37.478Z,4.03
2017-11-12T02:03:12.541Z,3.83
2017-11-12T02:03:46.889Z,3.42
2017-11-12T02:04:21.618Z,3.10
2017-11-12T02:04:56.325Z,3.45
2017-11-12T02:05:31.028Z,4.47
2017-11-12T02:06:05.743Z,4.30
2017-11-12T02:06:40.451Z,4.03
2017-11-12T02:07:15.153Z,4.10
2017-11-12T02:07:50.224Z,3.87
2017-11-12T02:08:24.931Z,4.28
2017-11-12T02:08:59.640Z,4.15
2017-11-12T02:09:34.349Z,3.62
2017-11-12T02:10:09.056Z,4.37
2017-11-12T02:10:43.991Z,3.95
2017-11-12T02:11:18.825Z,3.65
2017-11-12T02:11:53.735Z,3.83
2017-11-12T02:12:28.453Z,3.70
2017-11-12T02:13:03.172Z,3.95
2017-11-12T02:13:37.558Z,4.18
2017-11-12T02:14:11.920Z,4.20
2017-11-12T02:14:46.620Z,4.12
2017-11-12T02:15:21.387Z,3.72
2017-11-12T02:15:56.095Z,4.18
2017-11-12T02:16:30.794Z,3.70
2017-11-12T02:17:05.498Z,4.20
2017-11-12T02:17:40.025Z,4.93
2017-11-12T02:18:14.560Z,4.30
2017-11-12T02:18:49.281Z,4.18
2017-11-12T02:19:23.645Z,4.65
2017-11-12T02:19:58.008Z,4.43
2017-11-12T02:20:32.186Z,4.32
2017-11-12T02:21:06.695Z,5.15
2017-11-12T02:21:41.094Z,4.10
2017-11-12T02:22:15.444Z,4.70
2017-11-12T02:22:49.609Z,4.55
2017-11-12T02:23:23.968Z,4.32
2017-11-12T02:23:58.189Z,4.10
2017-11-12T02:24:32.691Z,4.70
2017-11-12T02:25:07.044Z,4.57
2017-11-12T02:25:42.013Z,4.75
2017-11-12T02:26:16.792Z,4.18
2017-11-12T02:26:51.144Z,4.95
2017-11-12T02:27:25.324Z,5.65
2017-11-12T02:27:59.690Z,5.00
2017-11-12T02:28:34.382Z,5.65
2017-11-12T02:29:09.071Z,5.18
2017-11-12T02:29:43.260Z,5.40
2017-11-12T02:30:17.968Z,5.72
2017-11-12T02:30:52.326Z,5.10
2017-11-12T02:31:26.704Z,5.75
2017-11-12T02:32:00.899Z,6.12
2017-11-12T02:32:35.364Z,5.22
2017-11-12T02:33:09.860Z,5.12
2017-11-12T02:33:44.664Z,5.72
2017-11-12T02:34:19.185Z,5.12
2017-11-12T02:34:53.609Z,4.90
2017-11-12T02:35:27.977Z,6.30
2017-11-12T02:36:02.337Z,6.35
2017-11-12T02:36:36.737Z,5.93
2017-11-12T02:37:10.921Z,5.20
2017-11-12T02:37:45.268Z,6.00
2017-11-12T02:38:19.632Z,5.75
2017-11-12T02:38:54.352Z,5.50
2017-11-12T02:39:28.875Z,6.57
2017-11-12T02:40:03.244Z,5.43
2017-11-12T02:40:37.655Z,5.87
2017-11-12T02:41:12.216Z,6.00
2017-11-12T02:41:46.972Z,5.20
2017-11-12T02:42:21.336Z,6.07
2017-11-12T02:42:55.718Z,4.80
2017-11-12T02:43:30.098Z,5.70
2017-11-12T02:44:04.455Z,7.25
2017-11-12T02:44:38.854Z,6.00
2017-11-12T02:45:13.245Z,6.30
2017-11-12T02:45:47.597Z,6.00
2017-11-12T02:46:21.944Z,5.40
2017-11-12T02:46:56.294Z,5.75
2017-11-12T02:47:30.661Z,5.78
2017-11-12T02:48:05.015Z,6.53
2017-11-12T02:48:39.388Z,6.10
2017-11-12T02:49:13.868Z,6.60
2017-11-12T02:49:48.257Z,6.00
2017-11-12T02:50:22.620Z,6.00
2017-11-12T02:50:57.018Z,6.15
2017-11-12T02:51:31.409Z,5.70
2017-11-12T02:52:05.803Z,6.57
2017-11-12T02:52:40.162Z,6.45
2017-11-12T02:53:14.546Z,5.53
2017-11-12T02:53:49.045Z,6.28
2017-11-12T02:54:23.747Z,4.93
2017-11-12T02:54:58.448Z,6.55
2017-11-12T02:55:32.821Z,5.28
2017-11-12T02:56:07.000Z,6.53
2017-11-12T02:56:41.548Z,6.10
2017-11-12T02:57:15.724Z,6.25
2017-11-12T02:57:50.710Z,6.05
2017-11-12T02:58:25.422Z,5.55
2017-11-12T02:58:59.767Z,5.82
2017-11-12T02:59:34.478Z,5.40
2017-11-12T03:00:08.854Z,6.57
2017-11-12T03:00:43.558Z,5.50
2017-11-12T03:01:18.279Z,6.07
2017-11-12T03:01:52.996Z,5.95
2017-11-12T03:02:27.735Z,6.28
2017-11-12T03:03:02.448Z,5.93
2017-11-12T03:03:37.151Z,6.40
2017-11-12T03:04:11.865Z,6.62
2017-11-12T03:04:46.594Z,7.12
2017-11-12T03:05:21.338Z,5.65
2017-11-12T03:05:56.052Z,6.93
2017-11-12T03:06:30.808Z,6.57
2017-11-12T03:07:05.508Z,5.80
2017-11-12T03:07:40.213Z,6.40
2017-11-12T03:08:14.956Z,6.70
2017-11-12T03:08:49.711Z,6.15
2017-11-12T03:09:25.659Z,5.78
2017-11-12T03:10:00.391Z,6.12
2017-11-12T03:10:35.160Z,6.20
2017-11-12T03:11:09.874Z,6.25
2017-11-12T03:11:44.576Z,6.15
2017-11-12T03:12:19.551Z,6.62
2017-11-12T03:12:54.261Z,7.45
2017-11-12T03:13:28.979Z,6.43
2017-11-12T03:14:04.088Z,6.00
2017-11-12T03:14:38.929Z,5.93
2017-11-12T03:15:13.645Z,6.18
2017-11-12T03:15:48.101Z,7.00
2017-11-12T03:16:22.801Z,6.22
2017-11-12T03:16:57.536Z,7.80
2017-11-12T03:17:32.268Z,6.80
2017-11-12T03:18:06.678Z,7.18
2017-11-12T03:18:41.388Z,6.30
2017-11-12T03:19:16.118Z,6.80
2017-11-12T03:19:50.819Z,5.80
2017-11-12T03:20:25.530Z,6.22
2017-11-12T03:21:00.585Z,6.75
2017-11-12T03:21:35.288Z,6.12
2017-11-12T03:22:10.013Z,6.10
2017-11-12T03:22:44.378Z,6.57
2017-11-12T03:23:19.218Z,7.32
2017-11-12T03:23:54.015Z,7.22
2017-11-12T03:24:28.714Z,6.05
2017-11-12T03:25:03.427Z,6.20
2017-11-12T03:25:37.818Z,7.00
2017-11-12T03:26:12.232Z,6.85
2017-11-12T03:26:46.603Z,6.45
2017-11-12T03:27:20.971Z,6.75
2017-11-12T03:27:55.343Z,7.37
2017-11-12T03:28:29.713Z,6.03
2017-11-12T03:29:04.091Z,6.25
2017-11-12T03:29:38.471Z,6.30
2017-11-12T03:30:13.178Z,6.60
2017-11-12T03:30:47.962Z,6.10
2017-11-12T03:31:22.708Z,6.62
2017-11-12T03:31:57.424Z,6.65
2017-11-12T03:32:31.795Z,6.25
2017-11-12T03:33:06.500Z,6.55
2017-11-12T03:33:41.241Z,6.22
2017-11-12T03:34:15.951Z,6.80
2017-11-12T03:34:50.677Z,6.93
2017-11-12T03:35:25.412Z,7.45
2017-11-12T03:36:00.110Z,6.15
2017-11-12T03:36:34.859Z,7.28
2017-11-12T03:37:09.570Z,6.10
2017-11-12T03:37:44.293Z,6.37
2017-11-12T03:38:18.992Z,6.85
2017-11-12T03:38:53.785Z,6.80
2017-11-12T03:39:28.517Z,7.80
2017-11-12T03:40:03.228Z,6.07
2017-11-12T03:40:37.954Z,6.10
2017-11-12T03:41:12.661Z,7.12
2017-11-12T03:41:47.434Z,6.30
2017-11-12T03:42:22.136Z,6.70
2017-11-12T03:42:56.837Z,8.15
2017-11-12T03:43:31.551Z,6.35
2017-11-12T03:44:06.272Z,7.03
2017-11-12T03:44:41.227Z,6.93
2017-11-12T03:45:16.084Z,6.37
2017-11-12T03:45:50.822Z,7.05
2017-11-12T03:46:25.367Z,6.60
2017-11-12T03:47:00.088Z,6.32
2017-11-12T03:47:35.431Z,6.85
2017-11-12T03:48:10.225Z,6.65
2017-11-12T03:48:44.602Z,6.35
2017-11-12T03:49:19.322Z,6.15
2017-11-12T03:49:54.068Z,5.85
2017-11-12T03:50:28.465Z,6.70
2017-11-12T03:51:03.176Z,6.80
2017-11-12T03:51:37.545Z,6.37
2017-11-12T03:52:11.941Z,6.80
2017-11-12T03:52:46.465Z,6.80
2017-11-12T03:53:21.240Z,7.20
2017-11-12T03:53:55.953Z,6.05
2017-11-12T03:54:30.710Z,6.87
2017-11-12T03:55:05.145Z,6.03
2017-11-12T03:55:39.859Z,6.60
2017-11-12T03:56:14.573Z,6.20
2017-11-12T03:56:49.288Z,6.28
2017-11-12T03:57:24.029Z,6.35
2017-11-12T03:57:58.748Z,6.20
2017-11-12T03:58:33.461Z,5.95
2017-11-12T03:59:08.392Z,6.50
2017-11-12T03:59:42.753Z,7.30
2017-11-12T04:00:17.532Z,5.85
2017-11-12T04:00:51.896Z,6.78
2017-11-12T04:01:26.283Z,6.90
2017-11-12T04:02:00.994Z,6.60
2017-11-12T04:02:35.736Z,6.75
2017-11-12T04:03:10.573Z,5.78
2017-11-12T04:03:45.301Z,6.95
2017-11-12T04:04:20.019Z,5.72
2017-11-12T04:04:54.745Z,6.53
2017-11-12T04:05:29.446Z,6.05
2017-11-12T04:06:03.812Z,6.20
2017-11-12T04:06:38.181Z,6.07
2017-11-12T04:07:12.552Z,6.40
2017-11-12T04:07:47.312Z,5.65
2017-11-12T04:08:22.026Z,6.15
2017-11-12T04:08:56.730Z,6.15
2017-11-12T04:09:31.157Z,6.43
2017-11-12T04:10:05.862Z,5.85
2017-11-12T04:10:40.566Z,5.70
2017-11-12T04:11:15.277Z,5.95
2017-11-12T04:11:50.007Z,5.90
2017-11-12T04:12:24.717Z,5.93
2017-11-12T04:12:59.704Z,6.12
2017-11-12T04:13:34.416Z,5.85
2017-11-12T04:14:09.128Z,6.32
2017-11-12T04:14:43.841Z,6.43
2017-11-12T04:15:18.587Z,6.05
2017-11-12T04:15:53.304Z,5.65
2017-11-12T04:16:28.009Z,5.70
2017-11-12T04:17:02.376Z,5.53
2017-11-12T04:17:37.075Z,6.60
2017-11-12T04:18:11.816Z,5.87
2017-11-12T04:18:46.547Z,7.15
2017-11-12T04:19:21.298Z,6.62
2017-11-12T04:19:55.673Z,6.85
2017-11-12T04:20:30.504Z,7.22
2017-11-12T04:21:04.876Z,7.50
2017-11-12T04:21:39.705Z,6.80
2017-11-12T04:22:14.424Z,6.18
2017-11-12T04:22:48.800Z,5.70
2017-11-12T04:23:23.220Z,6.37
2017-11-12T04:23:57.945Z,6.12
2017-11-12T04:24:32.656Z,6.95
2017-11-12T04:25:07.360Z,6.85
2017-11-12T04:25:41.729Z,6.37
2017-11-12T04:26:16.441Z,6.53
2017-11-12T04:26:51.156Z,5.40
2017-11-12T04:27:26.760Z,5.65
2017-11-12T04:28:01.493Z,5.20
2017-11-12T04:28:36.268Z,5.57
2017-11-12T04:29:10.970Z,5.47
2017-11-12T04:29:45.684Z,5.40
2017-11-12T04:30:20.392Z,5.60
2017-11-12T04:30:55.110Z,5.57
2017-11-12T04:31:29.821Z,5.12
2017-11-12T04:32:04.532Z,5.25
2017-11-12T04:32:39.291Z,5.50
2017-11-12T04:33:13.997Z,5.50
2017-11-12T04:33:48.721Z,5.25
2017-11-12T04:34:23.458Z,5.37
2017-11-12T04:34:58.168Z,4.97
2017-11-12T04:35:32.888Z,5.05
2017-11-12T04:36:07.583Z,5.25
2017-11-12T04:36:42.293Z,5.30
2017-11-12T04:37:16.992Z,4.55
2017-11-12T04:37:51.714Z,4.95
2017-11-12T04:38:26.406Z,4.30
2017-11-12T04:39:01.134Z,4.55
2017-11-12T04:39:35.984Z,4.75
2017-11-12T04:40:10.702Z,4.82
2017-11-12T04:40:45.408Z,4.37
2017-11-12T04:41:21.743Z,5.30
2017-11-12T04:41:56.448Z,5.50
2017-11-12T04:42:31.188Z,4.68
2017-11-12T04:43:05.951Z,4.85
2017-11-12T04:43:40.654Z,5.03
2017-11-12T04:44:15.392Z,4.53
2017-11-12T04:44:50.152Z,4.87
2017-11-12T04:45:24.866Z,5.57
2017-11-12T04:45:59.575Z,4.57
2017-11-12T04:46:34.289Z,4.43
2017-11-12T04:47:09.061Z,5.47
2017-11-12T04:47:43.776Z,4.32
2017-11-12T04:48:18.493Z,4.12
2017-11-12T04:48:53.213Z,5.55
2017-11-12T04:49:27.961Z,5.07
2017-11-12T04:50:02.672Z,4.47
2017-11-12T04:50:37.385Z,4.30
2017-11-12T04:51:12.343Z,4.95
2017-11-12T04:51:47.057Z,4.72
2017-11-12T04:52:21.771Z,4.78
2017-11-12T04:52:56.526Z,4.40
2017-11-12T04:53:31.231Z,4.22
2017-11-12T04:54:05.958Z,4.10
2017-11-12T04:54:40.700Z,4.00
2017-11-12T04:55:15.461Z,4.60
2017-11-12T04:55:50.172Z,4.57
2017-11-12T04:56:24.885Z,4.80
2017-11-12T04:56:59.620Z,4.18
2017-11-12T04:57:34.331Z,4.35
2017-11-12T04:58:08.703Z,4.12
2017-11-12T04:58:43.075Z,4.50
2017-11-12T04:59:17.788Z,4.12
2017-11-12T04:59:52.538Z,4.47
2017-11-12T05:00:26.890Z,3.78
2017-11-12T05:01:01.263Z,3.62
2017-11-12T05:01:35.960Z,4.15
2017-11-12T05:02:10.304Z,4.53
2017-11-12T05:02:45.015Z,4.25
2017-11-12T05:03:19.744Z,4.95
2017-11-12T05:03:54.512Z,4.68
2017-11-12T05:04:29.225Z,4.93
2017-11-12T05:05:03.897Z,4.32
2017-11-12T05:05:38.655Z,4.97
2017-11-12T05:06:13.380Z,5.40
2017-11-12T05:06:47.737Z,4.65
2017-11-12T05:07:22.451Z,4.18
2017-11-12T05:07:57.171Z,3.90
2017-11-12T05:08:31.872Z,4.30
2017-11-12T05:09:06.596Z,4.28
2017-11-12T05:09:41.298Z,5.07
2017-11-12T05:10:16.058Z,3.47
2017-11-12T05:10:50.761Z,4.20
2017-11-12T05:11:25.477Z,4.40
2017-11-12T05:11:59.886Z,4.30
2017-11-12T05:12:34.592Z,4.37
2017-11-12T05:13:09.308Z,4.07
2017-11-12T05:13:44.165Z,4.55
2017-11-12T05:14:18.879Z,4.22
2017-11-12T05:14:53.588Z,4.07
2017-11-12T05:15:28.382Z,3.53
2017-11-12T05:16:03.079Z,3.97
2017-11-12T05:16:37.925Z,4.55
2017-11-12T05:17:12.617Z,4.68
2017-11-12T05:17:46.984Z,5.28
2017-11-12T05:18:21.736Z,4.20
2017-11-12T05:18:56.448Z,4.30
2017-11-12T05:19:31.199Z,4.90
2017-11-12T05:20:05.925Z,3.70
2017-11-12T05:20:40.654Z,4.47
2017-11-12T05:21:15.458Z,4.55
2017-11-12T05:21:50.156Z,4.80
2017-11-12T05:22:24.932Z,4.68
2017-11-12T05:22:59.631Z,3.80
2017-11-12T05:23:34.326Z,4.55
2017-11-12T05:24:09.043Z,4.78
2017-11-12T05:24:43.757Z,4.85
2017-11-12T05:25:18.492Z,5.25
2017-11-12T05:25:53.240Z,5.25
2017-11-12T05:26:27.964Z,4.53
2017-11-12T05:27:02.665Z,5.00
2017-11-12T05:27:37.380Z,5.47
2017-11-12T05:28:12.140Z,5.20
2017-11-12T05:28:46.823Z,4.50
2017-11-12T05:29:21.620Z,4.22
2017-11-12T05:29:55.975Z,4.70
2017-11-12T05:30:31.225Z,5.20
2017-11-12T05:31:06.000Z,5.05
2017-11-12T05:31:40.699Z,4.95
2017-11-12T05:32:15.412Z,4.40
2017-11-12T05:32:50.149Z,4.87
2017-11-12T05:33:24.847Z,5.70
2017-11-12T05:33:59.553Z,4.82
2017-11-12T05:34:33.920Z,4.65
2017-11-12T05:35:08.670Z,5.28
2017-11-12T05:35:43.370Z,4.30
2017-11-12T05:36:18.084Z,4.47
2017-11-12T05:36:52.826Z,4.60
2017-11-12T05:37:27.580Z,5.03
2017-11-12T05:38:02.292Z,4.20
2017-11-12T05:38:37.008Z,5.05
2017-11-12T05:39:12.232Z,4.90
2017-11-12T05:39:46.926Z,4.80
2017-11-12T05:40:21.620Z,5.00
2017-11-12T05:40:56.363Z,4.35
2017-11-12T05:41:31.100Z,4.15
2017-11-12T05:42:05.813Z,5.12
2017-11-12T05:42:40.550Z,4.35
2017-11-12T05:43:15.241Z,5.37
2017-11-12T05:43:49.957Z,5.05
2017-11-12T05:44:24.678Z,4.70
2017-11-12T05:44:59.444Z,6.25
2017-11-12T05:45:34.137Z,4.60
2017-11-12T05:46:08.867Z,4.90
2017-11-12T05:46:43.600Z,5.10
2017-11-12T05:47:18.308Z,5.30
2017-11-12T05:47:53.024Z,5.57
2017-11-12T05:48:27.737Z,4.75
2017-11-12T05:49:02.480Z,5.05
2017-11-12T05:49:37.204Z,4.45
2017-11-12T05:50:11.907Z,4.97
2017-11-12T05:50:46.620Z,5.57
2017-11-12T05:51:21.335Z,5.40
2017-11-12T05:51:56.088Z,5.35
2017-11-12T05:52:30.813Z,5.40
2017-11-12T05:53:05.523Z,4.70
2017-11-12T05:53:40.240Z,4.85
2017-11-12T05:54:14.943Z,6.18
2017-11-12T05:54:49.896Z,5.00
2017-11-12T05:55:24.633Z,5.28
2017-11-12T05:55:59.596Z,4.80
2017-11-12T05:56:34.310Z,5.90
2017-11-12T05:57:09.059Z,5.57
2017-11-12T05:57:43.769Z,5.28
2017-11-12T05:58:18.308Z,5.80
2017-11-12T05:58:52.876Z,4.22
2017-11-12T05:59:27.604Z,5.95
2017-11-12T06:00:02.693Z,5.93
2017-11-12T06:00:37.425Z,5.35
2017-11-12T06:01:12.156Z,5.53
2017-11-12T06:01:46.859Z,5.30
2017-11-12T06:02:21.616Z,4.85
2017-11-12T06:02:56.327Z,4.93
2017-11-12T06:03:30.936Z,5.22
2017-11-12T06:04:05.653Z,5.07
2017-11-12T06:04:40.406Z,5.72
2017-11-12T06:05:15.120Z,4.75
2017-11-12T06:05:49.691Z,5.10
2017-11-12T06:06:24.405Z,5.15
2017-11-12T06:06:58.956Z,5.15
2017-11-12T06:07:33.802Z,4.40
2017-11-12T06:08:08.539Z,4.62
2017-11-12T06:08:43.272Z,5.00
2017-11-12T06:09:17.639Z,4.90
2017-11-12T06:09:52.144Z,4.57
2017-11-12T06:10:26.900Z,4.55
2017-11-12T06:11:01.604Z,4.37
2017-11-12T06:11:36.323Z,4.62
2017-11-12T06:12:11.033Z,4.20
2017-11-12T06:12:45.578Z,4.87
2017-11-12T06:13:20.329Z,4.62
2017-11-12T06:13:54.832Z,4.75
2017-11-12T06:14:29.371Z,4.95
2017-11-12T06:15:03.898Z,4.37
2017-11-12T06:15:38.600Z,4.62
2017-11-12T06:16:13.316Z,4.25
2017-11-12T06:16:47.691Z,4.68
2017-11-12T06:17:22.429Z,4.97
2017-11-12T06:17:56.980Z,4.30
2017-11-12T06:18:31.490Z,5.12
2017-11-12T06:19:06.015Z,4.35
2017-11-12T06:19:40.559Z,5.10
2017-11-12T06:20:15.290Z,4.97
2017-11-12T06:20:49.836Z,4.43
2017-11-12T06:21:24.551Z,5.00
2017-11-12T06:21:59.102Z,4.37
2017-11-12T06:22:33.662Z,5.28
2017-11-12T06:23:08.401Z,4.40
2017-11-12T06:23:42.912Z,4.30
2017-11-12T06:24:17.436Z,4.43
2017-11-12T06:24:51.949Z,3.90
2017-11-12T06:25:26.656Z,4.80
2017-11-12T06:26:01.251Z,4.95
2017-11-12T06:26:35.776Z,4.20
2017-11-12T06:27:10.358Z,4.35
2017-11-12T06:27:45.144Z,4.55
2017-11-12T06:28:19.882Z,4.53
2017-11-12T06:28:54.596Z,4.80
2017-11-12T06:29:29.147Z,4.50
2017-11-12T06:30:03.851Z,4.40
2017-11-12T06:30:38.561Z,4.68
2017-11-12T06:31:13.278Z,4.70
2017-11-12T06:31:48.062Z,4.05
2017-11-12T06:32:22.774Z,4.43
2017-11-12T06:32:57.296Z,4.22
2017-11-12T06:33:32.049Z,5.95
2017-11-12T06:34:06.777Z,5.15
2017-11-12T06:34:41.500Z,4.50
2017-11-12T06:35:16.044Z,4.20
2017-11-12T06:35:50.853Z,4.20
2017-11-12T06:36:25.572Z,4.65
2017-11-12T06:37:00.282Z,4.65
2017-11-12T06:37:34.996Z,4.00
2017-11-12T06:38:09.719Z,5.10
2017-11-12T06:38:44.449Z,4.65
2017-11-12T06:39:19.158Z,5.50
2017-11-12T06:39:53.927Z,4.45
2017-11-12T06:40:28.632Z,4.75
2017-11-12T06:41:03.341Z,4.68
2017-11-12T06:41:38.054Z,5.20
2017-11-12T06:42:12.774Z,4.57
2017-11-12T06:42:47.476Z,5.05
2017-11-12T06:43:22.175Z,4.97
2017-11-12T06:43:56.914Z,4.70
2017-11-12T06:44:31.628Z,4.90
2017-11-12T06:45:06.349Z,4.62
2017-11-12T06:45:41.082Z,5.05
2017-11-12T06:46:15.807Z,4.50
2017-11-12T06:46:50.507Z,5.32
2017-11-12T06:47:25.239Z,5.70
2017-11-12T06:47:59.953Z,5.43
2017-11-12T06:48:34.681Z,5.53
2017-11-12T06:49:09.405Z,5.62
2017-11-12T06:49:44.106Z,4.90
2017-11-12T06:50:18.906Z,5.03
2017-11-12T06:50:53.615Z,4.95
2017-11-12T06:51:28.366Z,5.25
2017-11-12T06:52:03.072Z,5.37
2017-11-12T06:52:37.797Z,5.07
2017-11-12T06:53:12.504Z,5.50
2017-11-12T06:53:47.261Z,5.70
2017-11-12T06:54:21.996Z,4.90
2017-11-12T06:54:56.890Z,5.55
2017-11-12T06:55:31.649Z,5.60
2017-11-12T06:56:06.384Z,4.90
2017-11-12T06:56:41.119Z,5.40
2017-11-12T06:57:15.837Z,5.62
2017-11-12T06:57:50.222Z,5.55
2017-11-12T06:58:24.924Z,5.22
2017-11-12T06:58:59.630Z,4.50
2017-11-12T06:59:34.659Z,5.40
2017-11-12T07:00:09.390Z,5.85
2017-11-12T07:00:44.100Z,5.40
2017-11-12T07:01:18.800Z,5.65
2017-11-12T07:01:53.523Z,5.95
2017-11-12T07:02:28.241Z,5.22
2017-11-12T07:03:02.973Z,5.72
2017-11-12T07:03:37.687Z,5.72
2017-11-12T07:04:12.399Z,4.90
2017-11-12T07:04:47.152Z,5.47
2017-11-12T07:05:21.869Z,5.03
2017-11-12T07:05:56.664Z,5.60
2017-11-12T07:06:31.392Z,5.95
2017-11-12T07:07:06.113Z,5.45
2017-11-12T07:07:40.846Z,5.10
2017-11-12T07:08:15.580Z,6.07
2017-11-12T07:08:50.305Z,5.80
2017-11-12T07:09:25.020Z,6.22
2017-11-12T07:09:59.741Z,5.03
2017-11-12T07:10:34.448Z,5.57
2017-11-12T07:11:09.160Z,5.60
2017-11-12T07:11:43.882Z,5.40
2017-11-12T07:12:18.603Z,6.43
2017-11-12T07:12:53.310Z,6.57
2017-11-12T07:13:28.020Z,6.70
2017-11-12T07:14:02.734Z,5.60
2017-11-12T07:14:37.452Z,5.75
2017-11-12T07:15:12.166Z,5.87
2017-11-12T07:15:46.555Z,5.70
2017-11-12T07:16:21.301Z,5.68
2017-11-12T07:16:56.047Z,6.53
2017-11-12T07:17:30.764Z,5.60
2017-11-12T07:18:05.460Z,5.47
2017-11-12T07:18:40.180Z,6.50
2017-11-12T07:19:14.889Z,5.80
2017-11-12T07:19:49.612Z,6.20
2017-11-12T07:20:24.370Z,5.45
2017-11-12T07:20:59.079Z,5.35
2017-11-12T07:21:33.807Z,5.97
2017-11-12T07:22:08.528Z,5.97
2017-11-12T07:22:43.234Z,6.00
2017-11-12T07:23:17.953Z,5.43
2017-11-12T07:23:52.665Z,5.80
2017-11-12T07:24:27.378Z,5.53
2017-11-12T07:25:02.368Z,5.80
2017-11-12T07:25:37.176Z,5.20
2017-11-12T07:26:11.871Z,5.70
2017-11-12T07:26:46.586Z,6.95
2017-11-12T07:27:21.290Z,6.30
2017-11-12T07:27:56.013Z,5.20
2017-11-12T07:28:30.745Z,6.05
2017-11-12T07:29:05.699Z,5.93
2017-11-12T07:29:40.502Z,6.47
2017-11-12T07:30:15.232Z,5.80
2017-11-12T07:30:49.984Z,5.62
2017-11-12T07:31:24.707Z,6.25
2017-11-12T07:31:59.483Z,6.00
2017-11-12T07:32:34.205Z,5.28
2017-11-12T07:33:08.942Z,5.10
2017-11-12T07:33:43.759Z,5.68
2017-11-12T07:34:18.467Z,5.50
2017-11-12T07:34:53.176Z,5.50
2017-11-12T07:35:27.912Z,5.87
2017-11-12T07:36:02.646Z,5.50
2017-11-12T07:36:37.352Z,5.60
2017-11-12T07:37:12.076Z,5.82
2017-11-12T07:37:46.791Z,5.80
2017-11-12T07:38:21.529Z,5.65
2017-11-12T07:38:56.357Z,5.47
2017-11-12T07:39:31.137Z,6.20
2017-11-12T07:40:05.840Z,5.12
2017-11-12T07:40:40.550Z,5.65
2017-11-12T07:41:15.313Z,4.75
2017-11-12T07:41:50.024Z,6.22
2017-11-12T07:42:24.725Z,5.45
2017-11-12T07:42:59.442Z,5.60
2017-11-12T07:43:34.176Z,5.93
2017-11-12T07:44:08.882Z,5.87
2017-11-12T07:44:43.585Z,5.25
2017-11-12T07:45:18.307Z,5.37
2017-11-12T07:45:53.009Z,5.40
2017-11-12T07:46:27.735Z,5.57
2017-11-12T07:47:02.449Z,5.70
2017-11-12T07:47:37.252Z,5.75
2017-11-12T07:48:11.965Z,5.68
2017-11-12T07:48:46.680Z,5.45
2017-11-12T07:49:21.393Z,6.25
2017-11-12T07:50:37.378Z,5.82
2017-11-12T07:51:12.140Z,5.12
2017-11-12T07:51:46.930Z,4.78
2017-11-12T07:52:21.673Z,4.93
2017-11-12T07:52:56.620Z,4.95
2017-11-12T07:53:31.365Z,5.62
2017-11-12T07:54:05.903Z,6.55
2017-11-12T07:54:40.437Z,5.57
2017-11-12T07:55:14.962Z,5.22
2017-11-12T07:55:49.714Z,5.45
2017-11-12T07:56:24.413Z,5.95
2017-11-12T07:56:59.180Z,5.25
2017-11-12T07:57:33.818Z,5.85
2017-11-12T07:58:08.514Z,5.18
2017-11-12T07:58:43.228Z,6.15
2017-11-12T07:59:17.968Z,5.50
2017-11-12T07:59:52.525Z,5.28
2017-11-12T08:00:27.283Z,5.85
2017-11-12T08:01:02.569Z,6.28
2017-11-12T08:01:37.293Z,6.10
2017-11-12T08:02:11.945Z,5.78
2017-11-12T08:02:46.464Z,6.43
2017-11-12T08:03:20.985Z,5.40
2017-11-12T08:03:55.697Z,5.68
2017-11-12T08:04:30.409Z,5.57
2017-11-12T08:05:05.120Z,5.80
2017-11-12T08:05:39.645Z,5.68
2017-11-12T08:06:14.199Z,6.20
2017-11-12T08:06:49.138Z,5.25
2017-11-12T08:07:23.872Z,5.00
2017-11-12T08:07:58.402Z,5.85
2017-11-12T08:08:33.114Z,6.12
2017-11-12T08:09:07.819Z,5.85
2017-11-12T08:09:42.529Z,5.28
2017-11-12T08:10:17.252Z,5.30
2017-11-12T08:10:51.780Z,5.95
2017-11-12T08:11:26.503Z,5.70
2017-11-12T08:12:01.212Z,5.90
2017-11-12T08:12:35.952Z,5.65
2017-11-12T08:13:10.484Z,5.35
2017-11-12T08:13:45.458Z,5.97
2017-11-12T08:14:20.172Z,5.20
2017-11-12T08:14:54.885Z,5.60
2017-11-12T08:15:29.607Z,5.53
2017-11-12T08:16:04.324Z,5.50
2017-11-12T08:16:39.028Z,6.30
2017-11-12T08:17:13.735Z,5.65
2017-11-12T08:17:48.537Z,6.05
2017-11-12T08:18:23.228Z,5.75
2017-11-12T08:18:57.926Z,5.43
2017-11-12T08:19:32.636Z,6.40
2017-11-12T08:20:07.351Z,5.70
2017-11-12T08:20:42.095Z,5.10
2017-11-12T08:21:16.809Z,5.55
2017-11-12T08:21:51.524Z,5.95
2017-11-12T08:22:26.244Z,6.10
2017-11-12T08:23:00.980Z,6.43
2017-11-12T08:23:35.700Z,5.57
2017-11-12T08:24:10.413Z,5.90
2017-11-12T08:24:45.123Z,4.90
2017-11-12T08:25:19.840Z,5.10
2017-11-12T08:25:54.576Z,5.72
2017-11-12T08:26:29.285Z,5.10
2017-11-12T08:27:03.993Z,5.07
2017-11-12T08:27:38.732Z,5.35
2017-11-12T08:28:13.480Z,5.15
2017-11-12T08:28:48.193Z,5.85
2017-11-12T08:29:22.914Z,4.85
2017-11-12T08:29:57.626Z,4.90
2017-11-12T08:30:32.352Z,5.22
2017-11-12T08:31:06.712Z,5.25
2017-11-12T08:31:41.457Z,5.03
2017-11-12T08:32:16.166Z,5.80